sensor_id;sensor_type;location;lat;lon;timestamp;temperature;humidity
27779;DHT22;30234;48.090;11.464;2023-05-29T00:01:10;8.20;99.90
27779;DHT22;30234;48.090;11.464;2023-05-29T00:05:11;7.90;99.90
27779;DHT22;30234;48.090;11.464;2023-05-29T00:09:13;7.70;99.90
27779;DHT22;30234;48.090;11.464;2023-05-29T00:13:14;7.60;99.90
27779;DHT22;30234;48.090;11.464;2023-05-29T00:17:15;7.50;99.90
27779;DHT22;30234;48.090;11.464;2023-05-29T00:21:16;7.60;99.90
27779;DHT22;30234;48.090;11.464;2023-05-29T00:25:18;7.60;99.90
27779;DHT22;30234;48.090;11.464;2023-05-29T00:29:19;7.50;99.90
27779;DHT22;30234;48.090;11.464;2023-05-29T00:33:21;7.40;99.90
27779;DHT22;30234;48.090;11.464;2023-05-29T00:37:22;7.30;99.90
27779;DHT22;30234;48.090;11.464;2023-05-29T00:41:23;7.30;99.90
27779;DHT22;30234;48.090;11.464;2023-05-29T00:45:24;7.30;99.90
27779;DHT22;30234;48.090;11.464;2023-05-29T00:49:26;7.20;99.90
27779;DHT22;30234;48.090;11.464;2023-05-29T00:53:27;7.10;99.90
27779;DHT22;30234;48.090;11.464;2023-05-29T00:57:29;7.00;99.90
27779;DHT22;30234;48.090;11.464;2023-05-29T01:01:30;7.00;99.90
27779;DHT22;30234;48.090;11.464;2023-05-29T01:05:34;7.20;99.90
27779;DHT22;30234;48.090;11.464;2023-05-29T01:09:36;7.30;99.90
27779;DHT22;30234;48.090;11.464;2023-05-29T01:13:38;7.30;99.90
27779;DHT22;30234;48.090;11.464;2023-05-29T01:18:22;7.10;99.90
27779;DHT22;30234;48.090;11.464;2023-05-29T01:27:10;7.10;99.90
27779;DHT22;30234;48.090;11.464;2023-05-29T01:31:13;7.00;99.90
27779;DHT22;30234;48.090;11.464;2023-05-29T01:35:15;6.90;99.90
27779;DHT22;30234;48.090;11.464;2023-05-29T01:39:16;6.80;99.90
27779;DHT22;30234;48.090;11.464;2023-05-29T01:43:19;6.80;99.90
27779;DHT22;30234;48.090;11.464;2023-05-29T01:47:20;6.90;99.90
27779;DHT22;30234;48.090;11.464;2023-05-29T01:51:22;6.70;99.90
27779;DHT22;30234;48.090;11.464;2023-05-29T01:55:23;6.90;99.90
27779;DHT22;30234;48.090;11.464;2023-05-29T01:59:24;6.90;99.90
27779;DHT22;30234;48.090;11.464;2023-05-29T02:03:27;7.00;99.90
27779;DHT22;30234;48.090;11.464;2023-05-29T02:07:30;6.80;99.90
27779;DHT22;30234;48.090;11.464;2023-05-29T02:11:31;6.50;99.90
27779;DHT22;30234;48.090;11.464;2023-05-29T02:15:32;6.50;99.90
27779;DHT22;30234;48.090;11.464;2023-05-29T02:19:33;6.40;99.90
27779;DHT22;30234;48.090;11.464;2023-05-29T02:23:33;6.40;99.90
27779;DHT22;30234;48.090;11.464;2023-05-29T02:27:35;6.60;99.90
27779;DHT22;30234;48.090;11.464;2023-05-29T02:31:35;6.60;99.90
27779;DHT22;30234;48.090;11.464;2023-05-29T02:35:36;6.40;99.90
27779;DHT22;30234;48.090;11.464;2023-05-29T02:39:37;6.20;99.90
27779;DHT22;30234;48.090;11.464;2023-05-29T02:43:38;6.40;99.90
27779;DHT22;30234;48.090;11.464;2023-05-29T02:47:39;6.30;99.90
27779;DHT22;30234;48.090;11.464;2023-05-29T02:51:40;6.20;99.90
27779;DHT22;30234;48.090;11.464;2023-05-29T02:55:42;6.10;99.90
27779;DHT22;30234;48.090;11.464;2023-05-29T02:59:43;6.10;99.90
27779;DHT22;30234;48.090;11.464;2023-05-29T03:03:46;6.10;99.90
27779;DHT22;30234;48.090;11.464;2023-05-29T03:07:46;6.20;99.90
27779;DHT22;30234;48.090;11.464;2023-05-29T03:11:48;6.10;99.90
27779;DHT22;30234;48.090;11.464;2023-05-29T03:15:50;6.00;99.90
27779;DHT22;30234;48.090;11.464;2023-05-29T03:19:51;6.00;99.90
27779;DHT22;30234;48.090;11.464;2023-05-29T03:23:52;6.20;99.90
27779;DHT22;30234;48.090;11.464;2023-05-29T03:27:53;6.20;99.90
27779;DHT22;30234;48.090;11.464;2023-05-29T03:31:54;6.10;99.90
27779;DHT22;30234;48.090;11.464;2023-05-29T03:35:54;6.00;99.90
27779;DHT22;30234;48.090;11.464;2023-05-29T03:39:56;5.90;99.90
27779;DHT22;30234;48.090;11.464;2023-05-29T03:43:57;5.90;99.90
27779;DHT22;30234;48.090;11.464;2023-05-29T03:47:58;6.10;99.90
27779;DHT22;30234;48.090;11.464;2023-05-29T03:51:59;6.20;99.90
27779;DHT22;30234;48.090;11.464;2023-05-29T03:56:00;6.50;99.90
27779;DHT22;30234;48.090;11.464;2023-05-29T04:00:01;6.60;99.90
27779;DHT22;30234;48.090;11.464;2023-05-29T04:04:02;6.70;99.90
27779;DHT22;30234;48.090;11.464;2023-05-29T04:08:03;6.70;99.90
27779;DHT22;30234;48.090;11.464;2023-05-29T04:12:05;6.80;99.90
27779;DHT22;30234;48.090;11.464;2023-05-29T04:16:07;7.50;99.90
27779;DHT22;30234;48.090;11.464;2023-05-29T04:20:08;8.00;99.90
27779;DHT22;30234;48.090;11.464;2023-05-29T04:24:09;7.90;99.90
27779;DHT22;30234;48.090;11.464;2023-05-29T04:28:11;8.30;99.90
27779;DHT22;30234;48.090;11.464;2023-05-29T04:32:12;9.30;99.90
27779;DHT22;30234;48.090;11.464;2023-05-29T04:36:13;10.80;99.90
27779;DHT22;30234;48.090;11.464;2023-05-29T04:40:14;12.40;99.90
27779;DHT22;30234;48.090;11.464;2023-05-29T04:44:18;14.00;99.90
27779;DHT22;30234;48.090;11.464;2023-05-29T04:48:19;15.30;99.90
27779;DHT22;30234;48.090;11.464;2023-05-29T04:52:20;16.60;99.90
27779;DHT22;30234;48.090;11.464;2023-05-29T04:56:21;17.80;99.90
27779;DHT22;30234;48.090;11.464;2023-05-29T05:00:22;18.80;99.90
27779;DHT22;30234;48.090;11.464;2023-05-29T05:04:24;19.30;98.40
27779;DHT22;30234;48.090;11.464;2023-05-29T05:08:25;20.00;95.60
27779;DHT22;30234;48.090;11.464;2023-05-29T05:12:25;21.60;93.80
27779;DHT22;30234;48.090;11.464;2023-05-29T05:16:26;21.70;91.10
27779;DHT22;30234;48.090;11.464;2023-05-29T05:20:27;22.40;87.10
27779;DHT22;30234;48.090;11.464;2023-05-29T05:24:28;23.50;81.20
27779;DHT22;30234;48.090;11.464;2023-05-29T05:28:29;24.40;76.40
27779;DHT22;30234;48.090;11.464;2023-05-29T05:32:30;25.20;71.20
27779;DHT22;30234;48.090;11.464;2023-05-29T05:36:31;26.30;66.50
27779;DHT22;30234;48.090;11.464;2023-05-29T05:40:33;27.20;62.80
27779;DHT22;30234;48.090;11.464;2023-05-29T05:44:34;26.90;59.20
27779;DHT22;30234;48.090;11.464;2023-05-29T05:48:34;26.60;60.40
27779;DHT22;30234;48.090;11.464;2023-05-29T05:52:35;26.20;61.40
27779;DHT22;30234;48.090;11.464;2023-05-29T05:56:36;26.70;60.80
27779;DHT22;30234;48.090;11.464;2023-05-29T06:00:39;27.10;59.20
27779;DHT22;30234;48.090;11.464;2023-05-29T06:04:40;26.50;59.10
27779;DHT22;30234;48.090;11.464;2023-05-29T06:08:42;24.50;62.10
27779;DHT22;30234;48.090;11.464;2023-05-29T06:12:43;24.30;64.50
27779;DHT22;30234;48.090;11.464;2023-05-29T06:16:44;24.90;63.60
27779;DHT22;30234;48.090;11.464;2023-05-29T06:20:46;26.20;62.60
27779;DHT22;30234;48.090;11.464;2023-05-29T06:24:47;27.70;59.00
27779;DHT22;30234;48.090;11.464;2023-05-29T06:28:47;27.90;58.30
27779;DHT22;30234;48.090;11.464;2023-05-29T06:32:48;28.90;56.20
27779;DHT22;30234;48.090;11.464;2023-05-29T06:36:49;27.10;57.50
27779;DHT22;30234;48.090;11.464;2023-05-29T06:40:50;26.50;57.70
27779;DHT22;30234;48.090;11.464;2023-05-29T06:44:51;27.10;58.20
27779;DHT22;30234;48.090;11.464;2023-05-29T06:48:52;27.20;57.30
27779;DHT22;30234;48.090;11.464;2023-05-29T06:52:52;28.00;56.20
27779;DHT22;30234;48.090;11.464;2023-05-29T06:56:53;26.80;57.50
27779;DHT22;30234;48.090;11.464;2023-05-29T07:00:55;27.90;57.30
27779;DHT22;30234;48.090;11.464;2023-05-29T07:04:55;27.20;55.50
27779;DHT22;30234;48.090;11.464;2023-05-29T07:08:57;26.50;58.20
27779;DHT22;30234;48.090;11.464;2023-05-29T07:12:58;27.90;56.30
27779;DHT22;30234;48.090;11.464;2023-05-29T07:16:59;28.50;54.60
27779;DHT22;30234;48.090;11.464;2023-05-29T07:21:00;27.50;53.90
27779;DHT22;30234;48.090;11.464;2023-05-29T07:25:02;27.40;56.10
27779;DHT22;30234;48.090;11.464;2023-05-29T07:29:04;27.70;54.90
27779;DHT22;30234;48.090;11.464;2023-05-29T07:33:05;27.10;55.20
27779;DHT22;30234;48.090;11.464;2023-05-29T07:37:06;28.10;55.40
27779;DHT22;30234;48.090;11.464;2023-05-29T07:41:07;28.40;53.40
27779;DHT22;30234;48.090;11.464;2023-05-29T07:45:08;28.90;53.30
27779;DHT22;30234;48.090;11.464;2023-05-29T07:49:09;29.70;51.80
27779;DHT22;30234;48.090;11.464;2023-05-29T07:53:10;30.20;50.20
27779;DHT22;30234;48.090;11.464;2023-05-29T07:57:12;30.10;50.40
27779;DHT22;30234;48.090;11.464;2023-05-29T08:01:13;31.50;49.20
27779;DHT22;30234;48.090;11.464;2023-05-29T08:05:14;31.30;49.10
27779;DHT22;30234;48.090;11.464;2023-05-29T08:09:15;30.10;48.20
27779;DHT22;30234;48.090;11.464;2023-05-29T08:13:16;29.80;49.30
27779;DHT22;30234;48.090;11.464;2023-05-29T08:17:17;29.50;50.00
27779;DHT22;30234;48.090;11.464;2023-05-29T08:21:18;29.10;50.80
27779;DHT22;30234;48.090;11.464;2023-05-29T08:25:19;29.30;49.70
27779;DHT22;30234;48.090;11.464;2023-05-29T08:29:20;31.50;48.90
27779;DHT22;30234;48.090;11.464;2023-05-29T08:33:21;31.10;46.40
27779;DHT22;30234;48.090;11.464;2023-05-29T08:37:22;30.90;47.70
27779;DHT22;30234;48.090;11.464;2023-05-29T08:45:44;29.40;48.80
27779;DHT22;30234;48.090;11.464;2023-05-29T08:49:47;29.50;49.90
27779;DHT22;30234;48.090;11.464;2023-05-29T08:53:53;30.40;49.20
27779;DHT22;30234;48.090;11.464;2023-05-29T08:57:55;30.20;48.80
27779;DHT22;30234;48.090;11.464;2023-05-29T09:01:57;30.60;48.20
27779;DHT22;30234;48.090;11.464;2023-05-29T09:05:58;30.40;47.80
27779;DHT22;30234;48.090;11.464;2023-05-29T09:10:00;29.30;49.40
27779;DHT22;30234;48.090;11.464;2023-05-29T09:14:01;29.10;50.90
27779;DHT22;30234;48.090;11.464;2023-05-29T09:18:04;30.40;50.20
27779;DHT22;30234;48.090;11.464;2023-05-29T09:22:13;31.00;48.30
27779;DHT22;30234;48.090;11.464;2023-05-29T09:26:15;30.60;48.90
27779;DHT22;30234;48.090;11.464;2023-05-29T09:34:44;30.20;49.50
27779;DHT22;30234;48.090;11.464;2023-05-29T09:38:45;30.40;48.50
27779;DHT22;30234;48.090;11.464;2023-05-29T09:42:46;28.70;49.30
27779;DHT22;30234;48.090;11.464;2023-05-29T09:46:49;27.80;49.60
27779;DHT22;30234;48.090;11.464;2023-05-29T09:50:50;29.10;49.70
27779;DHT22;30234;48.090;11.464;2023-05-29T09:54:51;27.80;48.00
27779;DHT22;30234;48.090;11.464;2023-05-29T09:58:54;28.40;50.00
27779;DHT22;30234;48.090;11.464;2023-05-29T10:02:56;28.40;47.60
27779;DHT22;30234;48.090;11.464;2023-05-29T10:07:08;28.00;48.90
27779;DHT22;30234;48.090;11.464;2023-05-29T10:11:11;28.20;49.30
27779;DHT22;30234;48.090;11.464;2023-05-29T10:15:16;28.70;48.70
27779;DHT22;30234;48.090;11.464;2023-05-29T10:19:25;28.00;48.50
27779;DHT22;30234;48.090;11.464;2023-05-29T10:23:30;28.10;48.70
27779;DHT22;30234;48.090;11.464;2023-05-29T10:27:31;28.10;49.00
27779;DHT22;30234;48.090;11.464;2023-05-29T10:36:14;29.10;49.00
27779;DHT22;30234;48.090;11.464;2023-05-29T10:40:26;29.80;47.10
27779;DHT22;30234;48.090;11.464;2023-05-29T10:48:38;30.40;46.20
27779;DHT22;30234;48.090;11.464;2023-05-29T10:52:46;29.90;46.30
27779;DHT22;30234;48.090;11.464;2023-05-29T10:56:58;30.30;45.60
27779;DHT22;30234;48.090;11.464;2023-05-29T11:01:01;30.70;46.70
27779;DHT22;30234;48.090;11.464;2023-05-29T11:05:27;30.00;44.50
27779;DHT22;30234;48.090;11.464;2023-05-29T11:09:34;30.20;47.00
27779;DHT22;30234;48.090;11.464;2023-05-29T11:13:36;29.90;44.90
27779;DHT22;30234;48.090;11.464;2023-05-29T11:25:51;28.70;46.60
27779;DHT22;30234;48.090;11.464;2023-05-29T11:29:52;28.80;46.70
27779;DHT22;30234;48.090;11.464;2023-05-29T11:33:59;29.00;45.70
27779;DHT22;30234;48.090;11.464;2023-05-29T11:38:01;27.70;49.00
27779;DHT22;30234;48.090;11.464;2023-05-29T11:42:02;28.20;47.00
27779;DHT22;30234;48.090;11.464;2023-05-29T11:46:17;28.80;46.60
27779;DHT22;30234;48.090;11.464;2023-05-29T11:50:26;28.50;47.30
27779;DHT22;30234;48.090;11.464;2023-05-29T11:54:28;29.40;46.30
27779;DHT22;30234;48.090;11.464;2023-05-29T11:58:29;30.30;45.10
27779;DHT22;30234;48.090;11.464;2023-05-29T12:02:31;30.00;43.20
27779;DHT22;30234;48.090;11.464;2023-05-29T12:06:32;29.50;43.20
27779;DHT22;30234;48.090;11.464;2023-05-29T12:10:46;29.50;42.30
27779;DHT22;30234;48.090;11.464;2023-05-29T12:14:52;28.60;40.90
27779;DHT22;30234;48.090;11.464;2023-05-29T12:18:54;28.80;42.50
27779;DHT22;30234;48.090;11.464;2023-05-29T12:23:00;29.10;42.00
27779;DHT22;30234;48.090;11.464;2023-05-29T12:27:05;29.00;43.70
27779;DHT22;30234;48.090;11.464;2023-05-29T12:31:08;29.20;44.10
27779;DHT22;30234;48.090;11.464;2023-05-29T12:35:22;29.80;42.10
27779;DHT22;30234;48.090;11.464;2023-05-29T12:39:26;30.30;40.40
27779;DHT22;30234;48.090;11.464;2023-05-29T12:43:28;30.30;40.40
27779;DHT22;30234;48.090;11.464;2023-05-29T12:47:28;30.10;40.90
27779;DHT22;30234;48.090;11.464;2023-05-29T12:51:30;29.80;42.00
27779;DHT22;30234;48.090;11.464;2023-05-29T12:55:37;29.60;40.70
27779;DHT22;30234;48.090;11.464;2023-05-29T12:59:41;29.40;42.50
27779;DHT22;30234;48.090;11.464;2023-05-29T13:03:42;29.20;41.20
27779;DHT22;30234;48.090;11.464;2023-05-29T13:07:43;29.30;39.60
27779;DHT22;30234;48.090;11.464;2023-05-29T13:11:44;29.20;41.00
27779;DHT22;30234;48.090;11.464;2023-05-29T13:15:44;29.80;41.00
27779;DHT22;30234;48.090;11.464;2023-05-29T13:19:45;30.40;39.30
27779;DHT22;30234;48.090;11.464;2023-05-29T13:23:46;30.30;40.20
27779;DHT22;30234;48.090;11.464;2023-05-29T13:27:48;30.50;40.30
27779;DHT22;30234;48.090;11.464;2023-05-29T13:31:49;29.70;42.50
27779;DHT22;30234;48.090;11.464;2023-05-29T13:35:50;29.90;43.00
27779;DHT22;30234;48.090;11.464;2023-05-29T13:39:50;29.70;41.00
27779;DHT22;30234;48.090;11.464;2023-05-29T13:43:51;29.90;40.90
27779;DHT22;30234;48.090;11.464;2023-05-29T13:47:52;30.60;41.30
27779;DHT22;30234;48.090;11.464;2023-05-29T13:51:53;30.70;40.70
27779;DHT22;30234;48.090;11.464;2023-05-29T13:55:54;29.20;42.80
27779;DHT22;30234;48.090;11.464;2023-05-29T13:59:55;28.70;42.00
27779;DHT22;30234;48.090;11.464;2023-05-29T14:03:56;28.10;43.70
27779;DHT22;30234;48.090;11.464;2023-05-29T14:07:57;29.00;42.60
27779;DHT22;30234;48.090;11.464;2023-05-29T14:11:59;29.70;40.80
27779;DHT22;30234;48.090;11.464;2023-05-29T14:16:00;29.80;41.10
27779;DHT22;30234;48.090;11.464;2023-05-29T14:20:01;30.10;42.10
27779;DHT22;30234;48.090;11.464;2023-05-29T14:24:05;29.50;41.40
27779;DHT22;30234;48.090;11.464;2023-05-29T14:28:06;28.90;41.60
27779;DHT22;30234;48.090;11.464;2023-05-29T14:32:07;28.70;41.90
27779;DHT22;30234;48.090;11.464;2023-05-29T14:36:08;29.70;41.20
27779;DHT22;30234;48.090;11.464;2023-05-29T14:40:10;29.00;41.30
27779;DHT22;30234;48.090;11.464;2023-05-29T14:44:11;27.90;43.10
27779;DHT22;30234;48.090;11.464;2023-05-29T14:48:13;28.70;42.40
27779;DHT22;30234;48.090;11.464;2023-05-29T14:52:13;29.50;40.60
27779;DHT22;30234;48.090;11.464;2023-05-29T14:56:14;30.20;39.40
27779;DHT22;30234;48.090;11.464;2023-05-29T15:00:16;29.90;41.50
27779;DHT22;30234;48.090;11.464;2023-05-29T15:04:17;28.60;42.70
27779;DHT22;30234;48.090;11.464;2023-05-29T15:08:18;27.90;43.60
27779;DHT22;30234;48.090;11.464;2023-05-29T15:12:19;28.20;42.30
27779;DHT22;30234;48.090;11.464;2023-05-29T15:16:20;28.30;41.80
27779;DHT22;30234;48.090;11.464;2023-05-29T15:20:24;28.60;43.00
27779;DHT22;30234;48.090;11.464;2023-05-29T15:24:26;29.30;41.90
27779;DHT22;30234;48.090;11.464;2023-05-29T15:28:27;28.90;42.50
27779;DHT22;30234;48.090;11.464;2023-05-29T15:32:28;29.40;43.20
27779;DHT22;30234;48.090;11.464;2023-05-29T15:36:29;29.30;42.00
27779;DHT22;30234;48.090;11.464;2023-05-29T15:40:30;27.20;45.10
27779;DHT22;30234;48.090;11.464;2023-05-29T15:44:31;27.10;45.80
27779;DHT22;30234;48.090;11.464;2023-05-29T15:48:32;27.90;45.60
27779;DHT22;30234;48.090;11.464;2023-05-29T15:52:32;28.30;45.00
27779;DHT22;30234;48.090;11.464;2023-05-29T15:56:33;28.30;43.60
27779;DHT22;30234;48.090;11.464;2023-05-29T16:00:34;28.00;44.10
27779;DHT22;30234;48.090;11.464;2023-05-29T16:04:36;28.00;43.80
27779;DHT22;30234;48.090;11.464;2023-05-29T16:08:37;28.00;45.70
27779;DHT22;30234;48.090;11.464;2023-05-29T16:12:42;28.40;45.80
27779;DHT22;30234;48.090;11.464;2023-05-29T16:16:45;27.70;43.70
27779;DHT22;30234;48.090;11.464;2023-05-29T16:20:46;26.70;45.60
27779;DHT22;30234;48.090;11.464;2023-05-29T16:24:46;26.70;45.60
27779;DHT22;30234;48.090;11.464;2023-05-29T16:28:48;26.80;46.30
27779;DHT22;30234;48.090;11.464;2023-05-29T16:32:49;26.70;46.20
27779;DHT22;30234;48.090;11.464;2023-05-29T16:36:50;26.50;46.60
27779;DHT22;30234;48.090;11.464;2023-05-29T16:40:50;26.40;46.80
27779;DHT22;30234;48.090;11.464;2023-05-29T16:44:51;26.30;46.70
27779;DHT22;30234;48.090;11.464;2023-05-29T16:48:52;25.60;47.50
27779;DHT22;30234;48.090;11.464;2023-05-29T16:52:53;25.40;47.60
27779;DHT22;30234;48.090;11.464;2023-05-29T16:56:54;25.50;47.70
27779;DHT22;30234;48.090;11.464;2023-05-29T17:00:55;25.70;47.20
27779;DHT22;30234;48.090;11.464;2023-05-29T17:04:56;25.00;47.90
27779;DHT22;30234;48.090;11.464;2023-05-29T17:08:57;24.80;48.90
27779;DHT22;30234;48.090;11.464;2023-05-29T17:13:04;25.10;47.50
27779;DHT22;30234;48.090;11.464;2023-05-29T17:17:20;24.80;47.90
27779;DHT22;30234;48.090;11.464;2023-05-29T17:21:21;24.10;49.60
27779;DHT22;30234;48.090;11.464;2023-05-29T17:25:22;23.80;51.00
27779;DHT22;30234;48.090;11.464;2023-05-29T17:29:23;23.40;51.00
27779;DHT22;30234;48.090;11.464;2023-05-29T17:33:24;22.90;52.20
27779;DHT22;30234;48.090;11.464;2023-05-29T17:37:24;22.60;53.40
27779;DHT22;30234;48.090;11.464;2023-05-29T17:41:25;22.30;53.20
27779;DHT22;30234;48.090;11.464;2023-05-29T17:45:27;22.20;53.40
27779;DHT22;30234;48.090;11.464;2023-05-29T17:49:28;22.10;53.90
27779;DHT22;30234;48.090;11.464;2023-05-29T17:53:29;22.00;53.90
27779;DHT22;30234;48.090;11.464;2023-05-29T17:57:30;21.80;55.40
27779;DHT22;30234;48.090;11.464;2023-05-29T18:01:31;22.70;54.70
27779;DHT22;30234;48.090;11.464;2023-05-29T18:05:32;21.30;53.70
27779;DHT22;30234;48.090;11.464;2023-05-29T18:09:33;21.30;53.90
27779;DHT22;30234;48.090;11.464;2023-05-29T18:13:34;21.20;54.20
27779;DHT22;30234;48.090;11.464;2023-05-29T18:17:35;21.00;54.80
27779;DHT22;30234;48.090;11.464;2023-05-29T18:21:36;20.80;55.20
27779;DHT22;30234;48.090;11.464;2023-05-29T18:25:38;20.70;56.20
27779;DHT22;30234;48.090;11.464;2023-05-29T18:29:39;20.40;57.40
27779;DHT22;30234;48.090;11.464;2023-05-29T18:33:39;20.00;57.90
27779;DHT22;30234;48.090;11.464;2023-05-29T18:37:40;19.70;58.70
27779;DHT22;30234;48.090;11.464;2023-05-29T18:41:41;19.60;59.90
27779;DHT22;30234;48.090;11.464;2023-05-29T18:45:44;19.40;59.40
27779;DHT22;30234;48.090;11.464;2023-05-29T18:49:44;19.20;60.10
27779;DHT22;30234;48.090;11.464;2023-05-29T18:53:45;18.90;61.00
27779;DHT22;30234;48.090;11.464;2023-05-29T18:57:46;19.60;63.10
27779;DHT22;30234;48.090;11.464;2023-05-29T19:01:47;19.00;63.80
27779;DHT22;30234;48.090;11.464;2023-05-29T19:05:48;18.50;64.10
27779;DHT22;30234;48.090;11.464;2023-05-29T19:09:49;17.70;65.00
27779;DHT22;30234;48.090;11.464;2023-05-29T19:13:50;17.60;66.40
27779;DHT22;30234;48.090;11.464;2023-05-29T19:17:51;17.50;69.30
27779;DHT22;30234;48.090;11.464;2023-05-29T19:21:52;17.80;72.60
27779;DHT22;30234;48.090;11.464;2023-05-29T19:25:53;17.50;73.50
27779;DHT22;30234;48.090;11.464;2023-05-29T19:29:54;16.90;74.90
27779;DHT22;30234;48.090;11.464;2023-05-29T19:33:55;16.70;76.30
27779;DHT22;30234;48.090;11.464;2023-05-29T19:37:56;16.40;78.80
27779;DHT22;30234;48.090;11.464;2023-05-29T19:41:57;16.20;80.00
27779;DHT22;30234;48.090;11.464;2023-05-29T19:45:57;16.20;80.50
27779;DHT22;30234;48.090;11.464;2023-05-29T19:49:58;16.00;81.10
27779;DHT22;30234;48.090;11.464;2023-05-29T19:54:07;15.70;83.60
27779;DHT22;30234;48.090;11.464;2023-05-29T19:58:08;15.30;85.30
27779;DHT22;30234;48.090;11.464;2023-05-29T20:02:09;15.10;87.60
27779;DHT22;30234;48.090;11.464;2023-05-29T20:06:11;15.20;89.80
27779;DHT22;30234;48.090;11.464;2023-05-29T20:10:11;15.20;90.40
27779;DHT22;30234;48.090;11.464;2023-05-29T20:14:12;14.90;92.00
27779;DHT22;30234;48.090;11.464;2023-05-29T20:18:13;14.80;93.90
27779;DHT22;30234;48.090;11.464;2023-05-29T20:22:14;14.70;95.80
27779;DHT22;30234;48.090;11.464;2023-05-29T20:26:15;14.80;97.00
27779;DHT22;30234;48.090;11.464;2023-05-29T20:30:16;14.70;98.80
27779;DHT22;30234;48.090;11.464;2023-05-29T20:34:17;14.50;99.90
27779;DHT22;30234;48.090;11.464;2023-05-29T20:38:18;14.30;99.90
27779;DHT22;30234;48.090;11.464;2023-05-29T20:42:19;14.10;99.90
27779;DHT22;30234;48.090;11.464;2023-05-29T20:46:22;14.10;99.90
27779;DHT22;30234;48.090;11.464;2023-05-29T20:50:23;14.30;99.90
27779;DHT22;30234;48.090;11.464;2023-05-29T20:54:26;15.70;99.90
27779;DHT22;30234;48.090;11.464;2023-05-29T20:58:28;14.30;99.90
27779;DHT22;30234;48.090;11.464;2023-05-29T21:02:29;14.10;99.90
27779;DHT22;30234;48.090;11.464;2023-05-29T21:06:32;13.90;99.90
27779;DHT22;30234;48.090;11.464;2023-05-29T21:10:34;13.80;99.90
27779;DHT22;30234;48.090;11.464;2023-05-29T21:14:35;15.10;99.90
27779;DHT22;30234;48.090;11.464;2023-05-29T21:18:36;13.90;99.90
27779;DHT22;30234;48.090;11.464;2023-05-29T21:22:38;13.80;99.90
27779;DHT22;30234;48.090;11.464;2023-05-29T21:26:39;13.70;99.90
27779;DHT22;30234;48.090;11.464;2023-05-29T21:30:40;14.00;99.90
27779;DHT22;30234;48.090;11.464;2023-05-29T21:34:41;13.40;99.90
27779;DHT22;30234;48.090;11.464;2023-05-29T21:38:42;13.40;99.90
27779;DHT22;30234;48.090;11.464;2023-05-29T21:42:42;13.30;99.90
27779;DHT22;30234;48.090;11.464;2023-05-29T21:46:45;13.20;99.90
27779;DHT22;30234;48.090;11.464;2023-05-29T21:50:46;13.50;99.90
27779;DHT22;30234;48.090;11.464;2023-05-29T21:54:47;13.70;99.90
27779;DHT22;30234;48.090;11.464;2023-05-29T21:58:48;13.20;99.90
27779;DHT22;30234;48.090;11.464;2023-05-29T22:02:49;12.90;99.90
27779;DHT22;30234;48.090;11.464;2023-05-29T22:06:51;12.70;99.90
27779;DHT22;30234;48.090;11.464;2023-05-29T22:10:52;12.60;99.90
27779;DHT22;30234;48.090;11.464;2023-05-29T22:14:52;12.40;99.90
27779;DHT22;30234;48.090;11.464;2023-05-29T22:18:53;12.40;99.90
27779;DHT22;30234;48.090;11.464;2023-05-29T22:22:56;12.20;99.90
27779;DHT22;30234;48.090;11.464;2023-05-29T22:26:57;12.20;99.90
27779;DHT22;30234;48.090;11.464;2023-05-29T22:30:58;12.00;99.90
27779;DHT22;30234;48.090;11.464;2023-05-29T22:35:00;11.90;99.90
27779;DHT22;30234;48.090;11.464;2023-05-29T22:39:01;11.80;99.90
27779;DHT22;30234;48.090;11.464;2023-05-29T22:43:02;13.20;99.90
27779;DHT22;30234;48.090;11.464;2023-05-29T22:47:04;11.70;99.90
27779;DHT22;30234;48.090;11.464;2023-05-29T22:51:05;11.40;99.90
27779;DHT22;30234;48.090;11.464;2023-05-29T22:55:07;11.40;99.90
27779;DHT22;30234;48.090;11.464;2023-05-29T22:59:09;11.20;99.90
27779;DHT22;30234;48.090;11.464;2023-05-29T23:03:11;11.10;99.90
27779;DHT22;30234;48.090;11.464;2023-05-29T23:07:13;11.00;99.90
27779;DHT22;30234;48.090;11.464;2023-05-29T23:11:15;11.00;99.90
27779;DHT22;30234;48.090;11.464;2023-05-29T23:15:19;10.80;99.90
27779;DHT22;30234;48.090;11.464;2023-05-29T23:19:20;10.70;99.90
27779;DHT22;30234;48.090;11.464;2023-05-29T23:23:21;10.50;99.90
27779;DHT22;30234;48.090;11.464;2023-05-29T23:27:21;10.50;99.90
27779;DHT22;30234;48.090;11.464;2023-05-29T23:31:22;10.50;99.90
27779;DHT22;30234;48.090;11.464;2023-05-29T23:35:23;10.30;99.90
27779;DHT22;30234;48.090;11.464;2023-05-29T23:39:24;10.20;99.90
27779;DHT22;30234;48.090;11.464;2023-05-29T23:43:25;10.10;99.90
27779;DHT22;30234;48.090;11.464;2023-05-29T23:47:26;9.90;99.90
27779;DHT22;30234;48.090;11.464;2023-05-29T23:51:27;9.80;99.90
27779;DHT22;30234;48.090;11.464;2023-05-29T23:55:31;9.60;99.90
27779;DHT22;30234;48.090;11.464;2023-05-29T23:59:33;9.50;99.90
